Time;durP1;ratioP1;P1;durP2;ratioP2;P2;SDS_P1;SDS_P2;PMS_P1;PMS_P2;Temp;Humidity;BMP_temperature;BMP_pressure;BME280_temperature;BME280_humidity;BME280_pressure;Samples;Min_cycle;Max_cycle;Signal;HPM_P1;HPM_P2
2024/01/05 00:01:08;;;;;;;10.50;4.75;;;;;;;6.64;100.00;99077.81;5051984;28;20449;-67
2024/01/05 00:03:33;;;;;;;8.00;4.95;;;;;;;6.67;100.00;99086.31;5053577;28;20029;-70
2024/01/05 00:05:59;;;;;;;5.00;3.63;;;;;;;6.65;99.87;99090.56;5053574;28;20401;-69
2024/01/05 00:08:24;;;;;;;5.28;3.70;;;;;;;6.67;99.21;99093.84;5035388;28;20405;-69
2024/01/05 00:10:50;;;;;;;6.72;4.20;;;;;;;6.65;98.71;99101.69;5057065;28;20048;-69
2024/01/05 00:13:16;;;;;;;8.48;4.40;;;;;;;6.66;98.23;99106.91;5072827;28;20060;-69
2024/01/05 00:15:42;;;;;;;8.88;5.15;;;;;;;6.56;98.54;99116.34;5067850;28;20036;-69
2024/01/05 00:18:08;;;;;;;10.02;6.28;;;;;;;6.66;98.65;99106.91;5052334;28;20025;-69
2024/01/05 00:20:33;;;;;;;6.93;5.00;;;;;;;6.69;98.10;99113.81;5053102;28;20052;-69
2024/01/05 00:22:59;;;;;;;10.95;5.32;;;;;;;6.43;99.17;99111.69;5053335;28;20494;-69
2024/01/05 00:25:24;;;;;;;10.98;6.32;;;;;;;6.59;99.81;99114.91;5037545;28;20055;-69
2024/01/05 00:27:53;;;;;;;10.63;6.25;;;;;;;6.63;99.02;99121.44;5059295;28;20452;-69
2024/01/05 00:30:19;;;;;;;12.07;6.68;;;;;;;6.60;98.56;99114.56;5054544;28;20029;-69
2024/01/05 00:32:45;;;;;;;19.42;10.18;;;;;;;6.56;98.32;99121.06;5070108;28;20024;-69
2024/01/05 00:35:10;;;;;;;18.75;11.25;;;;;;;6.45;98.16;99124.09;5052967;28;20033;-69
2024/01/05 00:37:36;;;;;;;12.02;6.68;;;;;;;6.44;98.18;99116.09;5035086;28;20025;-69
2024/01/05 00:40:02;;;;;;;13.63;7.35;;;;;;;6.49;98.05;99124.28;5061953;28;20433;-69
2024/01/05 00:42:28;;;;;;;14.20;7.93;;;;;;;6.28;98.46;99122.03;5072566;28;20157;-69
2024/01/05 00:44:54;;;;;;;10.55;6.55;;;;;;;6.26;98.73;99115.94;5072841;28;20481;-69
2024/01/05 00:47:19;;;;;;;10.35;7.32;;;;;;;6.21;98.79;99118.88;5054791;28;20452;-69
2024/01/05 00:49:45;;;;;;;11.32;7.38;;;;;;;6.25;98.98;99117.09;5070698;28;20083;-69
2024/01/05 00:52:10;;;;;;;12.85;7.45;;;;;;;6.23;98.72;99107.44;5069131;28;20035;-69
2024/01/05 00:54:36;;;;;;;12.45;7.80;;;;;;;6.16;98.80;99117.03;5071416;28;20039;-69
2024/01/05 00:57:01;;;;;;;9.80;6.13;;;;;;;5.90;99.91;99119.53;5054166;28;20035;-69
2024/01/05 00:59:27;;;;;;;12.85;7.28;;;;;;;5.88;99.81;99119.03;5054542;28;20020;-69
2024/01/05 01:01:53;;;;;;;10.30;7.72;;;;;;;5.94;99.78;99114.19;5072095;28;20063;-69
2024/01/05 01:04:19;;;;;;;12.55;7.68;;;;;;;6.02;99.31;99116.25;5070509;28;20040;-69
2024/01/05 01:06:44;;;;;;;14.00;8.25;;;;;;;5.81;99.17;99115.88;5037081;28;20493;-69
2024/01/05 01:09:10;;;;;;;14.55;8.98;;;;;;;5.82;99.99;99125.84;5051589;28;20531;-69
2024/01/05 01:11:35;;;;;;;13.05;8.35;;;;;;;4.91;100.00;99132.63;5034363;28;20032;-69
2024/01/05 01:14:00;;;;;;;15.85;12.07;;;;;;;4.40;100.00;99127.97;5064222;28;20077;-69
2024/01/05 01:16:26;;;;;;;15.48;11.30;;;;;;;4.68;100.00;99133.59;5054166;28;20025;-69
2024/01/05 01:18:51;;;;;;;11.73;9.32;;;;;;;4.78;100.00;99131.50;5071484;28;20031;-70
2024/01/05 01:21:17;;;;;;;13.65;8.32;;;;;;;4.76;100.00;99135.69;5071653;28;20504;-70
2024/01/05 01:23:42;;;;;;;15.20;10.25;;;;;;;4.59;100.00;99137.09;5054174;28;20543;-69
2024/01/05 01:26:08;;;;;;;16.63;10.45;;;;;;;4.61;100.00;99145.91;5057511;28;20021;-69
2024/01/05 01:28:33;;;;;;;15.15;8.30;;;;;;;4.52;100.00;99146.88;5051935;28;20028;-69
2024/01/05 01:30:59;;;;;;;13.05;8.45;;;;;;;4.73;100.00;99153.72;5051768;28;20096;-69
2024/01/05 01:33:25;;;;;;;15.13;9.07;;;;;;;4.60;100.00;99148.97;5055064;28;20017;-69
2024/01/05 01:35:50;;;;;;;17.33;10.52;;;;;;;4.69;100.00;99144.38;5051768;28;20390;-70
2024/01/05 01:38:15;;;;;;;15.13;9.48;;;;;;;4.73;100.00;99153.72;5051752;28;20028;-69
2024/01/05 01:40:47;;;;;;;14.93;8.80;;;;;;;4.75;100.00;99151.47;5051785;28;20032;-69
2024/01/05 01:43:21;;;;;;;17.45;8.95;;;;;;;4.56;100.00;99159.84;5051497;28;20020;-69
2024/01/05 01:45:47;;;;;;;15.90;8.80;;;;;;;4.67;100.00;99154.13;5051613;28;20021;-69
2024/01/05 01:48:14;;;;;;;15.68;6.78;;;;;;;4.74;100.00;99162.88;5046358;28;20090;-70
2024/01/05 01:50:40;;;;;;;11.55;5.85;;;;;;;4.82;100.00;99162.16;5071571;28;20085;-69
2024/01/05 01:53:05;;;;;;;8.82;5.88;;;;;;;4.85;100.00;99167.13;5041492;28;20016;-69
2024/01/05 01:55:31;;;;;;;8.32;5.78;;;;;;;5.01;100.00;99164.06;5052915;28;20028;-69
2024/01/05 01:57:56;;;;;;;5.50;4.57;;;;;;;5.06;100.00;99166.72;5071202;28;20028;-69
2024/01/05 02:00:22;;;;;;;15.02;10.00;;;;;;;4.70;100.00;99162.66;5065783;28;20171;-69
2024/01/05 02:02:48;;;;;;;18.35;11.20;;;;;;;4.81;100.00;99146.66;5034273;28;20064;-69
2024/01/05 02:05:14;;;;;;;16.23;7.20;;;;;;;4.89;100.00;99156.25;5053332;28;20138;-69
2024/01/05 02:07:42;;;;;;;7.78;5.13;;;;;;;5.04;100.00;99150.41;5071234;28;20016;-70
2024/01/05 02:10:07;;;;;;;6.40;4.07;;;;;;;5.20;100.00;99148.19;5071103;28;20076;-69
2024/01/05 02:12:33;;;;;;;5.22;3.63;;;;;;;5.37;100.00;99154.22;5071238;28;20078;-69
2024/01/05 02:14:58;;;;;;;7.53;3.10;;;;;;;5.50;100.00;99156.19;5070135;28;20020;-69
2024/01/05 02:17:32;;;;;;;5.00;2.92;;;;;;;5.62;99.14;99152.91;5068058;28;20020;-69
2024/01/05 02:19:57;;;;;;;5.00;4.05;;;;;;;5.59;98.50;99147.97;5049951;28;20052;-70
2024/01/05 02:22:27;;;;;;;5.00;2.70;;;;;;;5.67;97.37;99147.25;5051091;28;20028;-68
2024/01/05 02:24:53;;;;;;;5.65;3.15;;;;;;;5.87;97.02;99153.47;5051089;28;20041;-67
2024/01/05 02:27:18;;;;;;;6.15;3.33;;;;;;;5.88;96.36;99152.34;5050903;28;20048;-67
2024/01/05 02:29:44;;;;;;;5.32;3.42;;;;;;;5.92;95.33;99156.16;5048449;28;20024;-67
2024/01/05 02:32:09;;;;;;;7.07;4.40;;;;;;;5.93;95.33;99163.34;5070883;28;20024;-67
2024/01/05 02:34:34;;;;;;;6.32;3.75;;;;;;;5.76;95.65;99162.03;5059988;28;20072;-68
2024/01/05 02:37:00;;;;;;;6.18;4.28;;;;;;;5.80;96.49;99153.91;5064194;28;20020;-67
2024/01/05 02:39:25;;;;;;;4.15;3.55;;;;;;;5.87;96.27;99159.88;5070973;28;20043;-67
2024/01/05 02:41:51;;;;;;;10.18;4.82;;;;;;;5.29;96.67;99164.09;5069662;28;20016;-67
2024/01/05 02:44:16;;;;;;;12.18;7.30;;;;;;;5.39;96.82;99158.34;5070684;28;20398;-67
2024/01/05 02:46:42;;;;;;;15.32;6.82;;;;;;;5.48;97.05;99159.28;5070815;28;20413;-67
2024/01/05 02:49:07;;;;;;;13.00;7.60;;;;;;;4.86;98.99;99168.75;5070929;28;20094;-67
2024/01/05 02:51:33;;;;;;;15.60;8.07;;;;;;;5.05;98.63;99176.19;5051911;28;20070;-67
2024/01/05 02:53:58;;;;;;;13.20;9.15;;;;;;;4.77;98.80;99179.72;5051807;28;20078;-67
2024/01/05 02:56:24;;;;;;;13.65;8.20;;;;;;;4.67;98.58;99171.59;5052740;28;20492;-67
2024/01/05 02:58:54;;;;;;;12.13;8.38;;;;;;;4.04;100.00;99182.78;5070813;28;20389;-67
2024/01/05 03:01:19;;;;;;;17.83;9.17;;;;;;;4.21;100.00;99182.25;5053453;28;20074;-67
2024/01/05 03:03:48;;;;;;;40.35;18.08;;;;;;;3.98;100.00;99178.44;5050445;28;20796;-67
2024/01/05 03:06:18;;;;;;;90.22;38.00;;;;;;;4.20;100.00;99180.63;5050553;28;20405;-67
2024/01/05 03:08:44;;;;;;;32.50;17.27;;;;;;;3.87;100.00;99176.94;5059856;28;20036;-67
2024/01/05 03:11:10;;;;;;;18.52;11.80;;;;;;;4.15;100.00;99185.41;5055848;28;20457;-67
2024/01/05 03:13:36;;;;;;;23.45;11.73;;;;;;;4.27;100.00;99190.47;5050703;28;20041;-67
2024/01/05 03:16:02;;;;;;;26.73;14.02;;;;;;;3.99;100.00;99190.31;5050513;28;20025;-67
2024/01/05 03:18:28;;;;;;;31.58;15.05;;;;;;;4.12;100.00;99194.31;5050492;28;20037;-67
2024/01/05 03:20:53;;;;;;;22.58;13.65;;;;;;;4.10;100.00;99196.53;5032650;28;20143;-67
2024/01/05 03:23:19;;;;;;;30.23;16.95;;;;;;;4.22;100.00;99199.69;5068902;28;20417;-67
2024/01/05 03:25:45;;;;;;;25.40;12.98;;;;;;;4.18;100.00;99213.31;5051117;28;20105;-67
2024/01/05 03:28:10;;;;;;;25.73;12.68;;;;;;;4.10;100.00;99213.16;5050256;28;20033;-67
2024/01/05 03:30:37;;;;;;;22.60;13.60;;;;;;;4.27;100.00;99213.47;5050261;28;20125;-67
2024/01/05 03:33:03;;;;;;;26.20;13.93;;;;;;;4.31;100.00;99213.69;5032598;28;20497;-69
2024/01/05 03:35:29;;;;;;;41.38;21.00;;;;;;;4.27;100.00;99219.00;5042671;28;20070;-70
2024/01/05 03:37:55;;;;;;;32.78;17.75;;;;;;;4.22;100.00;99221.81;5070301;28;20076;-69
2024/01/05 03:40:21;;;;;;;37.45;18.50;;;;;;;4.28;100.00;99234.50;5069972;28;20081;-69
2024/01/05 03:42:46;;;;;;;18.13;10.80;;;;;;;4.22;100.00;99233.75;5067099;28;20028;-69
2024/01/05 03:45:12;;;;;;;18.50;9.27;;;;;;;4.20;100.00;99237.91;5050345;28;20029;-69
2024/01/05 03:47:37;;;;;;;16.70;7.75;;;;;;;4.21;100.00;99247.88;5048827;28;20029;-69
2024/01/05 03:50:03;;;;;;;24.23;11.48;;;;;;;4.35;100.00;99253.50;5050271;28;20028;-69
2024/01/05 03:52:29;;;;;;;22.60;11.10;;;;;;;4.31;100.00;99250.50;5050344;28;20051;-69
2024/01/05 03:54:55;;;;;;;23.45;13.20;;;;;;;4.48;100.00;99251.94;5035989;28;20488;-69
2024/01/05 03:57:23;;;;;;;18.60;11.90;;;;;;;4.55;100.00;99254.34;5035846;28;20024;-69
2024/01/05 03:59:49;;;;;;;18.13;10.25;;;;;;;4.14;100.00;99261.28;5035639;28;20421;-69
2024/01/05 04:02:15;;;;;;;19.90;10.38;;;;;;;4.28;100.00;99264.13;5069599;28;20032;-69
2024/01/05 04:04:40;;;;;;;16.35;10.50;;;;;;;4.39;100.00;99271.16;5055661;28;20064;-69
2024/01/05 04:07:06;;;;;;;11.82;7.78;;;;;;;4.47;100.00;99278.00;5073420;28;20045;-69
2024/01/05 04:09:32;;;;;;;32.72;18.60;;;;;;;3.60;100.00;99289.00;5072982;28;20090;-69
2024/01/05 04:11:58;;;;;;;37.30;22.23;;;;;;;3.92;100.00;99288.41;5073085;28;20085;-69
2024/01/05 04:14:24;;;;;;;31.35;17.88;;;;;;;4.05;100.00;99300.69;5052424;28;20132;-69
2024/01/05 04:16:49;;;;;;;16.98;7.97;;;;;;;4.00;100.00;99303.53;5035469;28;20021;-69
2024/01/05 04:19:15;;;;;;;8.02;5.93;;;;;;;4.19;100.00;99313.78;5053061;28;20029;-69
2024/01/05 04:21:41;;;;;;;7.95;6.10;;;;;;;4.34;100.00;99316.38;5070438;28;20036;-69
2024/01/05 04:24:07;;;;;;;7.70;5.38;;;;;;;4.42;99.31;99325.13;5073262;28;20029;-70
2024/01/05 04:26:32;;;;;;;21.58;14.13;;;;;;;4.10;100.00;99323.88;5073168;28;20029;-69
2024/01/05 04:28:58;;;;;;;14.82;8.15;;;;;;;4.20;100.00;99323.75;5072408;28;20032;-69
2024/01/05 04:31:23;;;;;;;9.30;5.95;;;;;;;4.27;99.37;99332.53;5071357;28;20032;-69
2024/01/05 04:33:49;;;;;;;7.28;4.80;;;;;;;4.32;99.45;99326.91;5067015;28;20033;-69
2024/01/05 04:36:18;;;;;;;8.05;3.65;;;;;;;4.49;98.36;99331.97;5069492;28;20043;-69
2024/01/05 04:38:44;;;;;;;10.45;6.90;;;;;;;4.50;97.74;99338.34;5074239;28;20566;-69
2024/01/05 04:41:17;;;;;;;12.57;8.65;;;;;;;4.43;97.65;99337.88;5072043;28;20071;-69
2024/01/05 04:43:44;;;;;;;41.70;20.67;;;;;;;4.29;98.15;99341.38;5073401;28;20036;-69
2024/01/05 04:46:10;;;;;;;25.58;15.32;;;;;;;4.20;98.39;99334.81;5063397;28;20029;-69
2024/01/05 04:48:35;;;;;;;33.03;17.77;;;;;;;3.93;99.38;99331.56;5071639;28;20389;-70
2024/01/05 04:51:01;;;;;;;51.33;28.27;;;;;;;3.98;99.52;99333.44;5050677;28;20531;-69
2024/01/05 04:53:27;;;;;;;39.45;26.08;;;;;;;3.87;99.27;99331.91;5062033;28;20028;-69
2024/01/05 04:55:52;;;;;;;42.63;25.77;;;;;;;3.99;99.82;99328.72;5053890;28;20040;-69
2024/01/05 04:58:18;;;;;;;45.42;24.58;;;;;;;3.62;99.96;99331.88;5070556;28;20091;-69
2024/01/05 05:00:44;;;;;;;39.45;22.20;;;;;;;3.77;100.00;99324.53;5067034;28;20028;-69
2024/01/05 05:03:10;;;;;;;36.85;22.35;;;;;;;3.58;100.00;99341.03;5068018;28;20024;-69
2024/01/05 05:05:36;;;;;;;70.65;32.33;;;;;;;3.71;100.00;99343.13;5053435;28;20463;-69
2024/01/05 05:08:02;;;;;;;87.78;40.10;;;;;;;3.54;100.00;99351.03;5071359;28;20029;-69
2024/01/05 05:10:27;;;;;;;62.40;30.05;;;;;;;3.70;100.00;99354.50;5069870;28;20048;-69
2024/01/05 05:12:53;;;;;;;35.80;21.70;;;;;;;3.84;100.00;99352.69;5065875;28;20032;-69
2024/01/05 05:15:18;;;;;;;35.45;22.17;;;;;;;3.79;100.00;99361.00;5075138;28;20052;-69
2024/01/05 05:17:44;;;;;;;38.88;22.95;;;;;;;3.76;98.96;99367.13;5069694;28;20044;-69
2024/01/05 05:20:10;;;;;;;38.85;20.83;;;;;;;3.73;99.19;99364.97;5069396;28;20036;-69
2024/01/05 05:22:35;;;;;;;30.40;18.02;;;;;;;3.61;99.32;99368.09;5080451;28;20020;-69
2024/01/05 05:25:01;;;;;;;23.20;14.52;;;;;;;3.69;99.84;99370.25;5054737;28;20024;-69
2024/01/05 05:27:27;;;;;;;21.92;14.77;;;;;;;3.78;99.15;99368.50;5071889;28;20016;-69
2024/01/05 05:29:52;;;;;;;48.33;20.00;;;;;;;3.88;99.12;99373.09;5053495;28;20024;-69
2024/01/05 05:32:17;;;;;;;45.70;17.55;;;;;;;3.90;98.51;99370.88;5055503;28;20029;-69
2024/01/05 05:34:44;;;;;;;17.05;7.90;;;;;;;3.84;99.60;99372.03;5053543;28;20035;-69
2024/01/05 05:37:10;;;;;;;8.15;5.05;;;;;;;3.85;99.43;99372.84;5062224;28;20019;-69
2024/01/05 05:39:36;;;;;;;7.47;4.43;;;;;;;3.86;99.14;99377.28;5069605;28;20024;-69
2024/01/05 05:42:02;;;;;;;6.50;4.70;;;;;;;3.92;99.59;99384.41;5053015;28;20398;-69
2024/01/05 05:44:28;;;;;;;8.57;5.82;;;;;;;4.00;98.73;99388.47;5071518;28;20035;-69
2024/01/05 05:46:54;;;;;;;12.18;7.18;;;;;;;4.22;97.49;99387.94;5055737;28;20033;-69
2024/01/05 05:49:19;;;;;;;10.77;6.25;;;;;;;4.20;97.67;99402.09;5051539;28;20051;-69
2024/01/05 05:51:45;;;;;;;10.48;4.07;;;;;;;4.15;97.99;99409.66;5041155;28;20488;-69
2024/01/05 05:54:11;;;;;;;5.82;3.90;;;;;;;4.20;98.00;99412.34;5069462;28;20032;-69
2024/01/05 05:56:37;;;;;;;34.38;17.27;;;;;;;4.18;97.72;99415.44;5049235;28;20446;-69
2024/01/05 05:59:03;;;;;;;24.33;14.60;;;;;;;4.24;97.14;99410.66;5071559;28;20025;-70
2024/01/05 06:01:28;;;;;;;21.83;10.38;;;;;;;4.46;96.66;99415.66;5079229;28;20021;-67
2024/01/05 06:03:53;;;;;;;21.83;10.82;;;;;;;4.61;95.36;99422.97;5053169;28;20111;-68
2024/01/05 06:06:21;;;;;;;7.55;5.07;;;;;;;4.75;94.25;99425.00;5071183;28;20028;-67
2024/01/05 06:08:48;;;;;;;14.30;7.45;;;;;;;4.84;94.34;99426.00;5074724;28;20025;-67
2024/01/05 06:11:17;;;;;;;27.73;6.72;;;;;;;4.99;94.05;99429.69;5033342;28;20045;-67
2024/01/05 06:13:43;;;;;;;14.57;5.03;;;;;;;4.94;93.56;99429.72;5044858;28;20067;-65
2024/01/05 06:16:08;;;;;;;19.58;15.15;;;;;;;4.96;92.39;99430.28;5067049;28;20068;-66
2024/01/05 06:18:34;;;;;;;9.93;5.97;;;;;;;4.96;91.73;99433.88;5067979;28;20032;-64
2024/01/05 06:21:00;;;;;;;9.10;3.90;;;;;;;5.03;90.98;99430.72;5068625;28;20484;-64
2024/01/05 06:23:25;;;;;;;163.20;90.15;;;;;;;5.15;91.11;99433.06;5050166;28;20056;-66
2024/01/05 06:25:51;;;;;;;143.40;84.22;;;;;;;5.30;89.18;99437.53;5068488;28;20487;-65
2024/01/05 06:28:16;;;;;;;39.17;30.45;;;;;;;5.44;88.71;99444.00;5055791;28;20090;-64
2024/01/05 06:30:42;;;;;;;120.97;107.63;;;;;;;5.47;88.53;99451.72;5032914;28;20036;-65
2024/01/05 06:33:08;;;;;;;58.22;44.90;;;;;;;5.59;87.86;99444.88;5055481;28;20129;-65
2024/01/05 06:35:33;;;;;;;26.48;19.10;;;;;;;5.73;87.63;99456.00;5048563;28;20028;-67
2024/01/05 06:37:59;;;;;;;69.72;43.13;;;;;;;5.76;87.83;99461.78;5059533;28;20505;-64
2024/01/05 06:40:24;;;;;;;48.60;36.70;;;;;;;5.74;87.87;99461.25;5033927;28;20524;-66
2024/01/05 06:42:49;;;;;;;16.60;13.55;;;;;;;5.83;87.65;99466.94;5035651;28;20056;-66
2024/01/05 06:45:16;;;;;;;9.77;8.73;;;;;;;5.96;87.83;99467.28;5034993;28;20025;-64
2024/01/05 06:47:41;;;;;;;20.65;16.67;;;;;;;6.14;87.14;99462.84;5051920;28;20481;-65
2024/01/05 06:50:07;;;;;;;29.42;20.42;;;;;;;6.19;86.18;99465.53;5043659;28;20040;-65
2024/01/05 06:52:33;;;;;;;23.73;14.00;;;;;;;6.25;86.29;99461.53;5065386;28;20040;-65
2024/01/05 06:54:59;;;;;;;30.30;18.23;;;;;;;6.42;85.88;99476.78;5055583;28;20464;-66
2024/01/05 06:57:25;;;;;;;27.00;17.30;;;;;;;6.52;85.20;99478.53;5047941;28;20807;-63
2024/01/05 06:59:51;;;;;;;23.27;17.73;;;;;;;6.66;85.65;99475.78;5047963;28;20036;-64
2024/01/05 07:02:17;;;;;;;18.35;12.73;;;;;;;6.82;85.22;99474.31;5048786;28;20039;-65
2024/01/05 07:04:42;;;;;;;25.50;16.52;;;;;;;6.98;85.14;99474.00;5066492;28;20040;-65
2024/01/05 07:07:08;;;;;;;32.55;21.48;;;;;;;7.14;84.21;99474.50;5060841;28;20025;-64
2024/01/05 07:09:33;;;;;;;13.35;10.98;;;;;;;7.30;83.30;99464.69;5069424;28;20083;-64
2024/01/05 07:11:59;;;;;;;53.65;39.15;;;;;;;7.48;83.28;99475.13;5051372;28;20032;-65
2024/01/05 07:14:27;;;;;;;12.65;9.00;;;;;;;7.59;82.75;99482.09;5054347;28;20047;-66
2024/01/05 07:16:56;;;;;;;17.98;13.75;;;;;;;7.76;81.64;99477.81;5051724;28;20028;-65
2024/01/05 07:19:22;;;;;;;16.35;12.80;;;;;;;7.90;81.75;99486.94;5070617;28;20512;-65
2024/01/05 07:21:48;;;;;;;104.75;55.20;;;;;;;7.79;82.22;99491.09;5059218;28;20153;-64
2024/01/05 07:24:15;;;;;;;101.07;53.45;;;;;;;7.57;84.64;99492.72;5038121;28;20029;-65
2024/01/05 07:26:41;;;;;;;105.10;52.90;;;;;;;7.83;84.29;99486.53;5050425;28;20020;-65
2024/01/05 07:29:06;;;;;;;74.50;39.17;;;;;;;8.02;83.64;99491.91;5059824;28;20029;-67
2024/01/05 07:31:32;;;;;;;37.95;20.67;;;;;;;8.00;82.43;99483.06;5047535;28;20238;-67
2024/01/05 07:33:57;;;;;;;18.70;9.75;;;;;;;8.17;82.18;99489.91;5048241;28;20029;-67
2024/01/05 07:36:23;;;;;;;9.20;5.65;;;;;;;8.21;80.72;99488.09;5052698;28;20032;-67
2024/01/05 07:38:48;;;;;;;8.85;6.13;;;;;;;8.43;80.23;99490.03;5052637;28;20516;-68
2024/01/05 07:41:18;;;;;;;4.20;3.50;;;;;;;8.43;79.43;99485.28;5058296;28;20056;-64
2024/01/05 07:43:43;;;;;;;10.55;5.93;;;;;;;8.49;80.00;99494.34;5073190;28;20035;-65
2024/01/05 07:46:09;;;;;;;7.57;5.95;;;;;;;8.62;79.35;99491.78;5063746;28;20021;-65
2024/01/05 07:48:38;;;;;;;5.28;4.22;;;;;;;8.73;80.19;99487.56;5056613;28;20036;-65
2024/01/05 07:51:04;;;;;;;7.10;4.28;;;;;;;8.78;79.77;99494.97;5054785;28;20481;-65
2024/01/05 07:53:30;;;;;;;4.20;3.30;;;;;;;9.04;77.62;99495.03;5040915;28;20024;-65
2024/01/05 07:55:55;;;;;;;5.43;4.50;;;;;;;9.08;77.53;99492.44;5066872;28;20526;-65
2024/01/05 07:58:20;;;;;;;19.35;10.43;;;;;;;8.94;84.94;99498.16;5069626;28;20021;-65
2024/01/05 08:00:46;;;;;;;18.63;10.50;;;;;;;9.12;84.19;99493.44;5072227;28;20094;-64
2024/01/05 08:03:11;;;;;;;20.00;11.55;;;;;;;8.68;86.86;99501.66;5069542;28;20047;-65
2024/01/05 08:05:38;;;;;;;24.75;11.68;;;;;;;7.90;91.16;99498.06;5064141;28;20056;-64
2024/01/05 08:08:03;;;;;;;17.83;12.80;;;;;;;7.97;91.85;99501.25;5070846;28;20036;-64
2024/01/05 08:10:30;;;;;;;29.48;17.50;;;;;;;8.29;90.89;99509.63;5080168;28;20051;-64
2024/01/05 08:12:56;;;;;;;29.95;17.95;;;;;;;8.31;91.21;99510.13;5055239;28;20577;-67
2024/01/05 08:15:21;;;;;;;27.65;16.17;;;;;;;8.52;89.10;99506.84;5052629;28;20028;-67
2024/01/05 08:17:47;;;;;;;40.58;20.58;;;;;;;8.47;88.65;99513.34;5059712;28;20035;-67
2024/01/05 08:20:12;;;;;;;41.08;16.27;;;;;;;8.29;89.28;99507.66;5072949;28;20089;-67
2024/01/05 08:22:38;;;;;;;30.77;13.65;;;;;;;8.53;88.01;99506.50;5073153;28;20097;-67
2024/01/05 08:25:04;;;;;;;21.10;10.52;;;;;;;8.86;86.25;99502.53;5054805;28;20115;-67
2024/01/05 08:27:29;;;;;;;18.55;8.50;;;;;;;9.20;83.89;99509.38;5071413;28;20066;-67
2024/01/05 08:29:55;;;;;;;8.90;4.35;;;;;;;9.56;78.25;99515.84;5043549;28;20036;-68
2024/01/05 08:32:21;;;;;;;23.60;10.85;;;;;;;9.63;81.82;99513.38;5072470;28;20032;-68
2024/01/05 08:34:46;;;;;;;16.75;10.43;;;;;;;9.90;82.20;99517.00;5055974;28;20549;-67
2024/01/05 08:37:12;;;;;;;7.20;5.32;;;;;;;10.06;76.98;99508.13;5051997;28;20467;-68
2024/01/05 08:39:41;;;;;;;14.57;4.70;;;;;;;10.24;71.79;99511.69;5034152;28;20482;-67
2024/01/05 08:42:07;;;;;;;163.20;75.53;;;;;;;10.46;71.53;99510.69;5038187;28;20055;-67
2024/01/05 08:44:33;;;;;;;345.80;167.85;;;;;;;10.76;68.66;99516.34;5040416;28;20063;-66
2024/01/05 08:46:58;;;;;;;403.20;172.32;;;;;;;10.80;68.55;99510.91;5078255;28;20089;-67
2024/01/05 08:49:24;;;;;;;37.58;17.50;;;;;;;11.01;69.74;99512.94;5076028;28;20020;-69
2024/01/05 08:51:49;;;;;;;32.30;15.73;;;;;;;10.98;75.60;99516.41;5054579;28;20036;-68
2024/01/05 08:54:15;;;;;;;32.10;18.63;;;;;;;10.88;76.78;99504.44;5067360;28;20114;-69
2024/01/05 08:56:40;;;;;;;31.92;16.98;;;;;;;10.60;77.06;99498.47;5081453;28;20027;-69
2024/01/05 08:59:06;;;;;;;19.77;11.93;;;;;;;10.76;73.83;99510.75;5067346;28;20066;-69
2024/01/05 09:01:35;;;;;;;22.13;13.13;;;;;;;10.72;72.57;99501.38;5070387;28;20496;-68
2024/01/05 09:04:00;;;;;;;22.00;13.30;;;;;;;10.73;71.78;99499.41;5064674;28;20032;-69
2024/01/05 09:06:27;;;;;;;51.05;26.58;;;;;;;10.70;76.13;99500.09;5066984;28;20489;-68
2024/01/05 09:08:52;;;;;;;34.25;19.23;;;;;;;10.92;73.49;99497.03;5076974;28;20027;-69
2024/01/05 09:11:18;;;;;;;41.13;22.38;;;;;;;11.07;76.61;99498.41;5054521;28;20547;-69
2024/01/05 09:13:43;;;;;;;64.82;34.22;;;;;;;11.21;76.97;99500.97;5068497;28;20021;-68
2024/01/05 09:16:09;;;;;;;54.13;28.17;;;;;;;11.16;77.08;99501.19;5076026;28;20020;-68
2024/01/05 09:18:35;;;;;;;41.33;15.90;;;;;;;11.06;76.58;99496.78;5076049;28;20032;-67
2024/01/05 09:21:02;;;;;;;29.55;13.88;;;;;;;11.21;75.84;99491.75;5059480;28;20024;-67
2024/01/05 09:23:28;;;;;;;24.00;10.05;;;;;;;11.22;74.49;99480.22;5084152;28;20099;-68
2024/01/05 09:25:53;;;;;;;18.40;10.38;;;;;;;11.49;75.88;99489.25;5071050;28;20104;-68
2024/01/05 09:28:18;;;;;;;23.67;12.13;;;;;;;11.21;74.94;99488.94;5071662;28;20091;-67
2024/01/05 09:30:44;;;;;;;22.73;11.68;;;;;;;11.08;75.39;99472.06;5056005;28;20541;-67
2024/01/05 09:33:09;;;;;;;20.35;7.65;;;;;;;11.24;73.19;99475.09;5072399;28;20028;-68
2024/01/05 09:35:35;;;;;;;14.57;7.05;;;;;;;11.15;74.09;99473.53;5067909;28;20039;-67
2024/01/05 09:38:00;;;;;;;16.08;8.60;;;;;;;11.31;75.59;99463.34;5068213;28;20369;-68
2024/01/05 09:40:26;;;;;;;23.92;9.52;;;;;;;11.45;72.93;99456.66;5069325;28;20042;-68
2024/01/05 09:42:53;;;;;;;20.83;7.72;;;;;;;11.60;70.71;99464.47;5058932;28;20106;-68
2024/01/05 09:45:21;;;;;;;17.23;6.30;;;;;;;11.63;67.13;99454.53;5049322;28;20406;-68
2024/01/05 09:47:51;;;;;;;16.65;6.55;;;;;;;11.85;64.57;99446.94;5079235;28;20039;-68
2024/01/05 09:50:17;;;;;;;13.05;4.90;;;;;;;11.99;65.40;99444.66;5074811;28;20075;-68
2024/01/05 09:52:43;;;;;;;20.20;4.82;;;;;;;12.13;64.90;99437.97;5052687;28;20563;-68
2024/01/05 09:55:09;;;;;;;11.65;4.55;;;;;;;12.14;64.49;99437.59;5081886;28;20451;-68
2024/01/05 09:57:36;;;;;;;7.78;3.05;;;;;;;12.31;62.16;99433.78;5070549;28;20031;-68
2024/01/05 10:00:05;;;;;;;11.68;4.13;;;;;;;12.33;61.64;99431.44;5055925;28;20024;-68
2024/01/05 10:02:42;;;;;;;9.23;3.90;;;;;;;12.62;59.33;99423.19;5086562;28;20104;-68
2024/01/05 10:05:08;;;;;;;4.38;3.35;;;;;;;12.74;59.31;99426.00;5035975;28;20036;-68
2024/01/05 10:07:41;;;;;;;9.00;2.80;;;;;;;12.78;58.20;99418.50;5050414;28;20478;-68
2024/01/05 10:10:08;;;;;;;8.32;3.42;;;;;;;12.98;61.62;99413.13;5067483;28;20048;-69
2024/01/05 10:12:33;;;;;;;6.45;2.33;;;;;;;13.13;60.03;99405.13;5064503;28;20041;-69
2024/01/05 10:15:06;;;;;;;5.68;2.22;;;;;;;13.14;56.97;99401.97;5037181;28;20043;-70
2024/01/05 10:17:33;;;;;;;4.53;2.85;;;;;;;13.40;58.20;99408.38;5051606;28;20035;-70
2024/01/05 10:20:12;;;;;;;6.38;2.97;;;;;;;13.37;59.60;99404.28;5051237;28;20024;-70
2024/01/05 10:22:37;;;;;;;28.30;3.50;;;;;;;13.58;57.08;99401.28;5068765;28;20028;-70
2024/01/05 10:25:23;;;;;;;12.90;3.15;;;;;;;13.58;58.54;99395.69;5037260;28;20032;-70
2024/01/05 10:27:49;;;;;;;25.60;3.92;;;;;;;13.56;58.35;99400.84;5049697;28;20029;-68
2024/01/05 10:30:27;;;;;;;16.17;2.35;;;;;;;13.42;56.98;99395.56;5065702;28;20063;-68
2024/01/05 10:33:06;;;;;;;3.53;2.75;;;;;;;13.55;56.89;99407.63;5064878;28;20031;-67
2024/01/05 10:35:34;;;;;;;8.00;2.50;;;;;;;13.26;55.23;99408.75;5050081;28;20012;-67
2024/01/05 10:38:11;;;;;;;4.90;2.30;;;;;;;13.53;56.02;99414.78;5048460;28;20427;-68
2024/01/05 10:40:37;;;;;;;3.78;2.08;;;;;;;13.90;55.39;99420.25;5045290;28;20043;-69
2024/01/05 10:43:14;;;;;;;3.72;2.58;;;;;;;14.13;53.79;99398.00;5050092;28;20028;-69
2024/01/05 10:45:41;;;;;;;2.97;2.20;;;;;;;14.17;54.08;99404.53;5068085;28;20091;-69
2024/01/05 10:48:09;;;;;;;4.82;2.35;;;;;;;14.35;54.63;99406.16;5046434;28;20021;-69
2024/01/05 10:50:40;;;;;;;6.53;2.75;;;;;;;14.29;54.67;99394.38;5036566;28;20060;-68
2024/01/05 10:53:09;;;;;;;6.53;2.40;;;;;;;14.45;53.27;99398.00;5050674;28;20123;-67
2024/01/05 10:55:36;;;;;;;5.45;2.38;;;;;;;14.39;54.77;99393.81;5049031;28;20166;-67
2024/01/05 10:58:02;;;;;;;5.57;4.97;;;;;;;14.32;54.48;99388.00;5065829;28;20181;-67
2024/01/05 11:00:28;;;;;;;4.97;2.13;;;;;;;14.15;54.84;99386.38;5047743;28;20138;-65
2024/01/05 11:03:01;;;;;;;3.70;2.42;;;;;;;14.39;55.98;99382.56;5069554;28;20162;-63
2024/01/05 11:05:28;;;;;;;2.60;1.73;;;;;;;14.22;54.75;99386.56;5058777;28;20500;-65
2024/01/05 11:07:55;;;;;;;7.40;2.42;;;;;;;14.48;54.58;99381.56;5044420;28;20101;-66
2024/01/05 11:10:26;;;;;;;3.80;1.98;;;;;;;14.62;52.79;99381.09;5068252;28;20049;-65
2024/01/05 11:13:10;;;;;;;8.80;2.50;;;;;;;14.56;54.16;99378.56;5051032;28;20109;-67
2024/01/05 11:15:57;;;;;;;10.10;2.63;;;;;;;14.62;51.66;99378.28;5058187;28;20129;-67
2024/01/05 11:18:41;;;;;;;3.97;2.10;;;;;;;14.86;49.93;99377.28;5065399;28;20032;-69
2024/01/05 11:21:44;;;;;;;5.00;2.10;;;;;;;14.66;52.14;99371.56;5071723;28;20028;-69
2024/01/05 11:24:15;;;;;;;3.03;2.25;;;;;;;14.61;54.16;99366.22;4985857;28;20552;-68